Terminal Aerodrome Forecast
Issued by NWS Charleston, WV

Home | Current Version | Previous Version | Text Only | Print | Product List | Glossary On
Versions: 1 2 3 4 5 6 7 8 9 10 11 12 13 14 15 16 17 18 19 20 21 22 23 24 25
000
FTUS41 KRLX 181120
TAFHTS
TAF
KHTS 181120Z 1812/1912 20011G16KT P6SM -SHRA OVC050
     FM181500 20014G24KT P6SM OVC040
     FM182200 21016G26KT 6SM -SHRA OVC035
     FM190000 21017G29KT 3SM -SHRA OVC030
     FM190300 25017G30KT 6SM -SHRA OVC020
     FM190600 28014G26KT P6SM OVC020
     FM191100 29010G21KT P6SM OVC025=

USA.gov is the U.S. government's official web portal to all federal, state and local government web resources and services.